sensor_id;sensor_type;location;lat;lon;timestamp;P1;durP1;ratioP1;P2;durP2;ratioP2
34695;SDS011;20918;51.138;17.370;2022-12-05T00:02:21;70.10;;;33.40;;
34695;SDS011;20918;51.138;17.370;2022-12-05T00:05:22;78.42;;;37.42;;
34695;SDS011;20918;51.138;17.370;2022-12-05T00:08:23;79.55;;;37.70;;
34695;SDS011;20918;51.138;17.370;2022-12-05T00:11:25;71.55;;;31.00;;
34695;SDS011;20918;51.138;17.370;2022-12-05T00:14:29;82.90;;;37.78;;
34695;SDS011;20918;51.138;17.370;2022-12-05T00:17:31;82.17;;;37.67;;
34695;SDS011;20918;51.138;17.370;2022-12-05T00:20:32;79.22;;;37.17;;
34695;SDS011;20918;51.138;17.370;2022-12-05T00:23:35;84.58;;;40.75;;
34695;SDS011;20918;51.138;17.370;2022-12-05T00:26:37;78.42;;;37.03;;
34695;SDS011;20918;51.138;17.370;2022-12-05T00:29:38;82.62;;;38.75;;
34695;SDS011;20918;51.138;17.370;2022-12-05T00:32:42;78.83;;;38.25;;
34695;SDS011;20918;51.138;17.370;2022-12-05T00:35:43;82.70;;;37.60;;
34695;SDS011;20918;51.138;17.370;2022-12-05T00:38:44;82.00;;;39.30;;
34695;SDS011;20918;51.138;17.370;2022-12-05T00:41:45;84.97;;;40.50;;
34695;SDS011;20918;51.138;17.370;2022-12-05T00:44:48;79.70;;;37.80;;
34695;SDS011;20918;51.138;17.370;2022-12-05T00:47:49;76.50;;;37.55;;
34695;SDS011;20918;51.138;17.370;2022-12-05T00:50:58;69.17;;;35.20;;
34695;SDS011;20918;51.138;17.370;2022-12-05T00:54:11;81.15;;;38.53;;
34695;SDS011;20918;51.138;17.370;2022-12-05T00:57:14;79.17;;;37.67;;
34695;SDS011;20918;51.138;17.370;2022-12-05T01:00:15;81.10;;;38.58;;
34695;SDS011;20918;51.138;17.370;2022-12-05T01:03:18;74.75;;;35.35;;
34695;SDS011;20918;51.138;17.370;2022-12-05T01:06:19;75.45;;;35.68;;
34695;SDS011;20918;51.138;17.370;2022-12-05T01:09:21;73.05;;;33.35;;
34695;SDS011;20918;51.138;17.370;2022-12-05T01:12:23;84.20;;;38.10;;
34695;SDS011;20918;51.138;17.370;2022-12-05T01:15:24;73.10;;;32.58;;
34695;SDS011;20918;51.138;17.370;2022-12-05T01:18:25;81.10;;;39.18;;
34695;SDS011;20918;51.138;17.370;2022-12-05T01:21:32;78.75;;;34.92;;
34695;SDS011;20918;51.138;17.370;2022-12-05T01:24:31;81.90;;;40.28;;
34695;SDS011;20918;51.138;17.370;2022-12-05T01:27:32;82.88;;;40.17;;
34695;SDS011;20918;51.138;17.370;2022-12-05T01:30:36;86.32;;;40.38;;
34695;SDS011;20918;51.138;17.370;2022-12-05T01:33:40;75.47;;;37.85;;
34695;SDS011;20918;51.138;17.370;2022-12-05T01:36:41;78.37;;;35.75;;
34695;SDS011;20918;51.138;17.370;2022-12-05T01:39:42;76.30;;;38.98;;
34695;SDS011;20918;51.138;17.370;2022-12-05T01:42:43;73.90;;;32.45;;
34695;SDS011;20918;51.138;17.370;2022-12-05T01:45:45;79.47;;;37.35;;
34695;SDS011;20918;51.138;17.370;2022-12-05T01:48:46;77.17;;;37.38;;
34695;SDS011;20918;51.138;17.370;2022-12-05T01:51:49;77.67;;;37.67;;
34695;SDS011;20918;51.138;17.370;2022-12-05T01:54:55;80.40;;;40.67;;
34695;SDS011;20918;51.138;17.370;2022-12-05T01:58:01;70.50;;;33.40;;
34695;SDS011;20918;51.138;17.370;2022-12-05T02:01:05;76.12;;;36.65;;
34695;SDS011;20918;51.138;17.370;2022-12-05T02:04:08;79.27;;;39.83;;
34695;SDS011;20918;51.138;17.370;2022-12-05T02:07:12;82.08;;;38.88;;
34695;SDS011;20918;51.138;17.370;2022-12-05T02:10:13;79.67;;;34.53;;
34695;SDS011;20918;51.138;17.370;2022-12-05T02:16:57;79.17;;;37.85;;
34695;SDS011;20918;51.138;17.370;2022-12-05T02:20:20;78.90;;;36.75;;
34695;SDS011;20918;51.138;17.370;2022-12-05T02:30:33;81.72;;;37.28;;
34695;SDS011;20918;51.138;17.370;2022-12-05T02:37:52;68.85;;;33.42;;
34695;SDS011;20918;51.138;17.370;2022-12-05T02:44:23;71.62;;;32.50;;
34695;SDS011;20918;51.138;17.370;2022-12-05T02:47:29;73.10;;;35.30;;
34695;SDS011;20918;51.138;17.370;2022-12-05T02:50:34;65.05;;;31.00;;
34695;SDS011;20918;51.138;17.370;2022-12-05T02:53:38;62.78;;;30.37;;
34695;SDS011;20918;51.138;17.370;2022-12-05T02:56:42;60.98;;;28.25;;
34695;SDS011;20918;51.138;17.370;2022-12-05T02:59:45;70.83;;;32.78;;
34695;SDS011;20918;51.138;17.370;2022-12-05T03:02:52;62.08;;;30.48;;
34695;SDS011;20918;51.138;17.370;2022-12-05T03:05:59;60.55;;;27.02;;
34695;SDS011;20918;51.138;17.370;2022-12-05T03:12:38;62.55;;;31.55;;
34695;SDS011;20918;51.138;17.370;2022-12-05T03:15:47;66.05;;;32.28;;
34695;SDS011;20918;51.138;17.370;2022-12-05T03:18:54;68.90;;;32.20;;
34695;SDS011;20918;51.138;17.370;2022-12-05T03:22:06;66.53;;;32.15;;
34695;SDS011;20918;51.138;17.370;2022-12-05T03:25:06;64.92;;;31.62;;
34695;SDS011;20918;51.138;17.370;2022-12-05T03:28:13;68.20;;;33.67;;
34695;SDS011;20918;51.138;17.370;2022-12-05T03:38:26;66.15;;;30.77;;
34695;SDS011;20918;51.138;17.370;2022-12-05T03:41:40;63.45;;;31.55;;
34695;SDS011;20918;51.138;17.370;2022-12-05T03:48:03;60.00;;;27.82;;
34695;SDS011;20918;51.138;17.370;2022-12-05T03:51:21;57.95;;;28.62;;
34695;SDS011;20918;51.138;17.370;2022-12-05T03:54:28;64.05;;;26.90;;
34695;SDS011;20918;51.138;17.370;2022-12-05T03:57:42;58.95;;;30.32;;
34695;SDS011;20918;51.138;17.370;2022-12-05T04:00:48;58.08;;;29.02;;
34695;SDS011;20918;51.138;17.370;2022-12-05T04:03:57;57.93;;;29.60;;
34695;SDS011;20918;51.138;17.370;2022-12-05T04:07:03;59.25;;;30.48;;
34695;SDS011;20918;51.138;17.370;2022-12-05T04:10:11;59.98;;;29.18;;
34695;SDS011;20918;51.138;17.370;2022-12-05T04:13:15;61.48;;;29.30;;
34695;SDS011;20918;51.138;17.370;2022-12-05T04:16:45;60.83;;;31.02;;
34695;SDS011;20918;51.138;17.370;2022-12-05T04:20:05;60.88;;;30.25;;
34695;SDS011;20918;51.138;17.370;2022-12-05T04:23:31;63.95;;;30.95;;
34695;SDS011;20918;51.138;17.370;2022-12-05T04:26:35;63.42;;;30.55;;
34695;SDS011;20918;51.138;17.370;2022-12-05T04:29:48;62.27;;;32.33;;
34695;SDS011;20918;51.138;17.370;2022-12-05T04:39:36;61.50;;;31.33;;
34695;SDS011;20918;51.138;17.370;2022-12-05T04:42:52;68.83;;;31.62;;
34695;SDS011;20918;51.138;17.370;2022-12-05T04:45:56;70.65;;;34.67;;
34695;SDS011;20918;51.138;17.370;2022-12-05T04:49:00;70.52;;;32.25;;
34695;SDS011;20918;51.138;17.370;2022-12-05T04:52:08;60.45;;;30.32;;
34695;SDS011;20918;51.138;17.370;2022-12-05T04:55:13;68.60;;;33.75;;
34695;SDS011;20918;51.138;17.370;2022-12-05T04:58:21;68.00;;;34.13;;
34695;SDS011;20918;51.138;17.370;2022-12-05T05:01:24;62.03;;;31.68;;
34695;SDS011;20918;51.138;17.370;2022-12-05T05:04:41;64.72;;;33.60;;
34695;SDS011;20918;51.138;17.370;2022-12-05T05:07:48;64.75;;;34.27;;
34695;SDS011;20918;51.138;17.370;2022-12-05T05:14:22;62.15;;;33.78;;
34695;SDS011;20918;51.138;17.370;2022-12-05T05:17:23;66.85;;;33.28;;
34695;SDS011;20918;51.138;17.370;2022-12-05T05:20:24;62.15;;;31.55;;
34695;SDS011;20918;51.138;17.370;2022-12-05T05:23:26;58.13;;;30.52;;
34695;SDS011;20918;51.138;17.370;2022-12-05T05:26:28;65.80;;;33.85;;
34695;SDS011;20918;51.138;17.370;2022-12-05T05:29:30;61.85;;;32.88;;
34695;SDS011;20918;51.138;17.370;2022-12-05T05:32:32;66.17;;;32.05;;
34695;SDS011;20918;51.138;17.370;2022-12-05T05:35:36;66.37;;;34.65;;
34695;SDS011;20918;51.138;17.370;2022-12-05T05:38:39;64.92;;;32.48;;
34695;SDS011;20918;51.138;17.370;2022-12-05T05:41:43;61.98;;;31.52;;
34695;SDS011;20918;51.138;17.370;2022-12-05T05:44:43;59.83;;;32.42;;
34695;SDS011;20918;51.138;17.370;2022-12-05T05:50:48;58.80;;;29.87;;
34695;SDS011;20918;51.138;17.370;2022-12-05T05:53:49;67.40;;;31.82;;
34695;SDS011;20918;51.138;17.370;2022-12-05T05:56:50;66.57;;;31.68;;
34695;SDS011;20918;51.138;17.370;2022-12-05T05:59:51;61.65;;;30.65;;
34695;SDS011;20918;51.138;17.370;2022-12-05T06:02:52;49.93;;;26.25;;
34695;SDS011;20918;51.138;17.370;2022-12-05T06:05:56;58.45;;;29.40;;
34695;SDS011;20918;51.138;17.370;2022-12-05T06:08:59;59.27;;;30.80;;
34695;SDS011;20918;51.138;17.370;2022-12-05T06:12:00;56.55;;;30.65;;
34695;SDS011;20918;51.138;17.370;2022-12-05T06:15:01;60.33;;;31.30;;
34695;SDS011;20918;51.138;17.370;2022-12-05T06:18:03;60.30;;;30.95;;
34695;SDS011;20918;51.138;17.370;2022-12-05T06:21:04;56.30;;;29.48;;
34695;SDS011;20918;51.138;17.370;2022-12-05T06:24:08;56.00;;;28.92;;
34695;SDS011;20918;51.138;17.370;2022-12-05T06:27:09;52.27;;;28.25;;
34695;SDS011;20918;51.138;17.370;2022-12-05T06:30:11;55.03;;;28.80;;
34695;SDS011;20918;51.138;17.370;2022-12-05T06:33:13;52.30;;;28.05;;
34695;SDS011;20918;51.138;17.370;2022-12-05T06:36:16;58.35;;;29.77;;
34695;SDS011;20918;51.138;17.370;2022-12-05T06:39:20;50.92;;;26.57;;
34695;SDS011;20918;51.138;17.370;2022-12-05T06:42:21;54.40;;;30.02;;
34695;SDS011;20918;51.138;17.370;2022-12-05T06:45:22;52.58;;;28.30;;
34695;SDS011;20918;51.138;17.370;2022-12-05T06:48:23;54.73;;;28.65;;
34695;SDS011;20918;51.138;17.370;2022-12-05T06:51:24;54.85;;;28.92;;
34695;SDS011;20918;51.138;17.370;2022-12-05T06:54:25;47.03;;;26.52;;
34695;SDS011;20918;51.138;17.370;2022-12-05T06:57:29;52.80;;;27.52;;
34695;SDS011;20918;51.138;17.370;2022-12-05T07:00:31;50.48;;;27.95;;
34695;SDS011;20918;51.138;17.370;2022-12-05T07:03:51;52.00;;;27.65;;
34695;SDS011;20918;51.138;17.370;2022-12-05T07:06:53;50.60;;;28.45;;
34695;SDS011;20918;51.138;17.370;2022-12-05T07:09:55;47.13;;;27.60;;
34695;SDS011;20918;51.138;17.370;2022-12-05T07:12:56;49.40;;;25.85;;
34695;SDS011;20918;51.138;17.370;2022-12-05T07:15:58;53.78;;;26.90;;
34695;SDS011;20918;51.138;17.370;2022-12-05T07:18:59;46.85;;;25.88;;
34695;SDS011;20918;51.138;17.370;2022-12-05T07:22:00;53.28;;;29.60;;
34695;SDS011;20918;51.138;17.370;2022-12-05T07:25:02;46.48;;;25.02;;
34695;SDS011;20918;51.138;17.370;2022-12-05T07:28:04;52.05;;;26.27;;
34695;SDS011;20918;51.138;17.370;2022-12-05T07:31:06;51.20;;;27.67;;
34695;SDS011;20918;51.138;17.370;2022-12-05T07:34:14;45.58;;;24.23;;
34695;SDS011;20918;51.138;17.370;2022-12-05T07:37:15;48.87;;;25.35;;
34695;SDS011;20918;51.138;17.370;2022-12-05T07:40:16;49.95;;;25.45;;
34695;SDS011;20918;51.138;17.370;2022-12-05T07:43:17;54.20;;;28.80;;
34695;SDS011;20918;51.138;17.370;2022-12-05T07:46:18;47.53;;;27.95;;
34695;SDS011;20918;51.138;17.370;2022-12-05T07:49:20;53.20;;;28.65;;
34695;SDS011;20918;51.138;17.370;2022-12-05T07:52:21;47.67;;;28.60;;
34695;SDS011;20918;51.138;17.370;2022-12-05T07:55:22;53.30;;;29.60;;
34695;SDS011;20918;51.138;17.370;2022-12-05T07:58:23;53.38;;;29.45;;
34695;SDS011;20918;51.138;17.370;2022-12-05T08:01:25;52.27;;;29.57;;
34695;SDS011;20918;51.138;17.370;2022-12-05T08:04:27;51.60;;;27.05;;
34695;SDS011;20918;51.138;17.370;2022-12-05T08:07:29;52.43;;;28.55;;
34695;SDS011;20918;51.138;17.370;2022-12-05T08:10:30;54.55;;;29.35;;
34695;SDS011;20918;51.138;17.370;2022-12-05T08:13:31;51.33;;;27.98;;
34695;SDS011;20918;51.138;17.370;2022-12-05T08:16:33;50.23;;;26.97;;
34695;SDS011;20918;51.138;17.370;2022-12-05T08:19:34;50.78;;;29.37;;
34695;SDS011;20918;51.138;17.370;2022-12-05T08:22:36;50.88;;;27.65;;
34695;SDS011;20918;51.138;17.370;2022-12-05T08:25:37;47.78;;;26.87;;
34695;SDS011;20918;51.138;17.370;2022-12-05T08:28:38;48.65;;;27.30;;
34695;SDS011;20918;51.138;17.370;2022-12-05T08:31:44;49.23;;;25.92;;
34695;SDS011;20918;51.138;17.370;2022-12-05T08:34:48;46.30;;;26.40;;
34695;SDS011;20918;51.138;17.370;2022-12-05T08:37:49;50.17;;;26.20;;
34695;SDS011;20918;51.138;17.370;2022-12-05T08:40:51;45.40;;;27.13;;
34695;SDS011;20918;51.138;17.370;2022-12-05T08:43:52;48.15;;;26.85;;
34695;SDS011;20918;51.138;17.370;2022-12-05T08:46:54;47.88;;;28.42;;
34695;SDS011;20918;51.138;17.370;2022-12-05T08:49:55;55.48;;;28.67;;
34695;SDS011;20918;51.138;17.370;2022-12-05T08:52:56;62.05;;;33.08;;
34695;SDS011;20918;51.138;17.370;2022-12-05T08:56:01;58.85;;;32.80;;
34695;SDS011;20918;51.138;17.370;2022-12-05T08:59:04;53.50;;;30.70;;
34695;SDS011;20918;51.138;17.370;2022-12-05T09:02:07;50.12;;;28.45;;
34695;SDS011;20918;51.138;17.370;2022-12-05T09:05:10;45.80;;;25.52;;
34695;SDS011;20918;51.138;17.370;2022-12-05T09:08:13;51.73;;;28.73;;
34695;SDS011;20918;51.138;17.370;2022-12-05T09:11:20;47.20;;;27.27;;
34695;SDS011;20918;51.138;17.370;2022-12-05T09:14:23;44.75;;;26.30;;
34695;SDS011;20918;51.138;17.370;2022-12-05T09:17:24;47.90;;;26.55;;
34695;SDS011;20918;51.138;17.370;2022-12-05T09:20:25;45.83;;;25.60;;
34695;SDS011;20918;51.138;17.370;2022-12-05T09:23:27;45.38;;;26.73;;
34695;SDS011;20918;51.138;17.370;2022-12-05T09:26:28;45.38;;;27.20;;
34695;SDS011;20918;51.138;17.370;2022-12-05T09:29:30;45.55;;;27.58;;
34695;SDS011;20918;51.138;17.370;2022-12-05T09:32:31;53.00;;;27.98;;
34695;SDS011;20918;51.138;17.370;2022-12-05T09:35:32;49.23;;;27.93;;
34695;SDS011;20918;51.138;17.370;2022-12-05T09:38:33;50.95;;;29.05;;
34695;SDS011;20918;51.138;17.370;2022-12-05T09:45:11;61.70;;;32.83;;
34695;SDS011;20918;51.138;17.370;2022-12-05T09:48:35;72.27;;;39.80;;
34695;SDS011;20918;51.138;17.370;2022-12-05T09:51:43;65.80;;;35.68;;
34695;SDS011;20918;51.138;17.370;2022-12-05T09:54:47;52.53;;;28.52;;
34695;SDS011;20918;51.138;17.370;2022-12-05T09:57:56;48.42;;;28.60;;
34695;SDS011;20918;51.138;17.370;2022-12-05T10:01:07;46.95;;;27.90;;
34695;SDS011;20918;51.138;17.370;2022-12-05T10:08:10;51.98;;;29.42;;
34695;SDS011;20918;51.138;17.370;2022-12-05T10:15:12;51.23;;;29.87;;
34695;SDS011;20918;51.138;17.370;2022-12-05T10:21:38;50.05;;;29.48;;
34695;SDS011;20918;51.138;17.370;2022-12-05T10:24:50;49.65;;;28.70;;
34695;SDS011;20918;51.138;17.370;2022-12-05T10:28:02;52.30;;;29.37;;
34695;SDS011;20918;51.138;17.370;2022-12-05T10:31:08;50.45;;;28.35;;
34695;SDS011;20918;51.138;17.370;2022-12-05T10:34:15;45.00;;;26.50;;
34695;SDS011;20918;51.138;17.370;2022-12-05T10:37:23;49.45;;;29.18;;
34695;SDS011;20918;51.138;17.370;2022-12-05T10:40:32;45.60;;;27.60;;
34695;SDS011;20918;51.138;17.370;2022-12-05T10:43:31;49.42;;;28.23;;
34695;SDS011;20918;51.138;17.370;2022-12-05T10:46:34;45.60;;;27.20;;
34695;SDS011;20918;51.138;17.370;2022-12-05T10:49:35;45.03;;;25.50;;
34695;SDS011;20918;51.138;17.370;2022-12-05T10:52:38;47.35;;;27.07;;
34695;SDS011;20918;51.138;17.370;2022-12-05T10:55:40;42.35;;;25.60;;
34695;SDS011;20918;51.138;17.370;2022-12-05T10:58:56;40.50;;;25.20;;
34695;SDS011;20918;51.138;17.370;2022-12-05T11:01:57;43.90;;;25.52;;
34695;SDS011;20918;51.138;17.370;2022-12-05T11:04:59;47.80;;;26.70;;
34695;SDS011;20918;51.138;17.370;2022-12-05T11:08:00;45.20;;;26.33;;
34695;SDS011;20918;51.138;17.370;2022-12-05T11:11:05;48.08;;;26.27;;
34695;SDS011;20918;51.138;17.370;2022-12-05T11:14:24;43.98;;;25.72;;
34695;SDS011;20918;51.138;17.370;2022-12-05T11:17:31;48.13;;;25.55;;
34695;SDS011;20918;51.138;17.370;2022-12-05T11:20:40;42.03;;;25.72;;
34695;SDS011;20918;51.138;17.370;2022-12-05T11:23:39;48.05;;;26.77;;
34695;SDS011;20918;51.138;17.370;2022-12-05T11:26:41;45.55;;;26.15;;
34695;SDS011;20918;51.138;17.370;2022-12-05T11:29:43;43.45;;;24.95;;
34695;SDS011;20918;51.138;17.370;2022-12-05T11:36:26;46.45;;;25.17;;
34695;SDS011;20918;51.138;17.370;2022-12-05T11:39:39;49.70;;;28.15;;
34695;SDS011;20918;51.138;17.370;2022-12-05T12:11:42;53.35;;;29.30;;
34695;SDS011;20918;51.138;17.370;2022-12-05T12:21:50;53.00;;;28.60;;
34695;SDS011;20918;51.138;17.370;2022-12-05T12:28:45;49.03;;;28.85;;
34695;SDS011;20918;51.138;17.370;2022-12-05T12:56:41;44.42;;;25.57;;
34695;SDS011;20918;51.138;17.370;2022-12-05T13:02:52;50.25;;;26.97;;
34695;SDS011;20918;51.138;17.370;2022-12-05T13:06:12;46.95;;;27.35;;
34695;SDS011;20918;51.138;17.370;2022-12-05T13:12:50;48.78;;;27.90;;
34695;SDS011;20918;51.138;17.370;2022-12-05T13:15:57;48.40;;;28.75;;
34695;SDS011;20918;51.138;17.370;2022-12-05T13:18:58;51.98;;;27.55;;
34695;SDS011;20918;51.138;17.370;2022-12-05T13:22:00;51.75;;;27.87;;
34695;SDS011;20918;51.138;17.370;2022-12-05T13:25:02;54.18;;;29.05;;
34695;SDS011;20918;51.138;17.370;2022-12-05T13:28:04;50.90;;;28.92;;
34695;SDS011;20918;51.138;17.370;2022-12-05T13:31:09;49.35;;;27.48;;
34695;SDS011;20918;51.138;17.370;2022-12-05T13:37:43;47.75;;;26.85;;
34695;SDS011;20918;51.138;17.370;2022-12-05T13:41:04;53.17;;;27.35;;
34695;SDS011;20918;51.138;17.370;2022-12-05T13:47:48;46.95;;;26.75;;
34695;SDS011;20918;51.138;17.370;2022-12-05T13:50:58;51.70;;;27.55;;
34695;SDS011;20918;51.138;17.370;2022-12-05T13:54:23;47.17;;;26.97;;
34695;SDS011;20918;51.138;17.370;2022-12-05T13:58:00;50.28;;;27.02;;
34695;SDS011;20918;51.138;17.370;2022-12-05T14:00:43;52.90;;;27.98;;
34695;SDS011;20918;51.138;17.370;2022-12-05T14:06:58;54.33;;;28.12;;
34695;SDS011;20918;51.138;17.370;2022-12-05T14:09:59;47.75;;;27.62;;
34695;SDS011;20918;51.138;17.370;2022-12-05T14:13:01;47.90;;;27.25;;
34695;SDS011;20918;51.138;17.370;2022-12-05T14:19:39;50.60;;;26.52;;
34695;SDS011;20918;51.138;17.370;2022-12-05T14:30:01;50.38;;;28.32;;
34695;SDS011;20918;51.138;17.370;2022-12-05T14:33:10;56.45;;;28.57;;
34695;SDS011;20918;51.138;17.370;2022-12-05T14:36:15;54.27;;;29.37;;
34695;SDS011;20918;51.138;17.370;2022-12-05T14:39:21;48.60;;;27.40;;
34695;SDS011;20918;51.138;17.370;2022-12-05T14:46:13;55.60;;;29.98;;
34695;SDS011;20918;51.138;17.370;2022-12-05T14:49:32;54.60;;;30.40;;
34695;SDS011;20918;51.138;17.370;2022-12-05T14:52:38;57.05;;;30.25;;
34695;SDS011;20918;51.138;17.370;2022-12-05T14:55:43;60.08;;;31.35;;
34695;SDS011;20918;51.138;17.370;2022-12-05T15:02:10;55.55;;;31.52;;
34695;SDS011;20918;51.138;17.370;2022-12-05T15:05:30;60.75;;;31.87;;
34695;SDS011;20918;51.138;17.370;2022-12-05T15:08:42;58.73;;;32.45;;
34695;SDS011;20918;51.138;17.370;2022-12-05T15:11:43;63.20;;;33.15;;
34695;SDS011;20918;51.138;17.370;2022-12-05T15:14:47;60.45;;;33.63;;
34695;SDS011;20918;51.138;17.370;2022-12-05T15:21:43;61.10;;;32.00;;
34695;SDS011;20918;51.138;17.370;2022-12-05T15:24:57;66.30;;;33.63;;
34695;SDS011;20918;51.138;17.370;2022-12-05T15:28:18;60.70;;;32.38;;
34695;SDS011;20918;51.138;17.370;2022-12-05T15:31:19;64.15;;;35.13;;
34695;SDS011;20918;51.138;17.370;2022-12-05T15:34:23;60.08;;;33.80;;
34695;SDS011;20918;51.138;17.370;2022-12-05T15:38:06;58.45;;;32.83;;
34695;SDS011;20918;51.138;17.370;2022-12-05T15:41:16;64.72;;;34.15;;
34695;SDS011;20918;51.138;17.370;2022-12-05T15:44:20;68.85;;;35.15;;
34695;SDS011;20918;51.138;17.370;2022-12-05T15:47:23;64.85;;;35.43;;
34695;SDS011;20918;51.138;17.370;2022-12-05T15:50:28;68.45;;;36.93;;
34695;SDS011;20918;51.138;17.370;2022-12-05T15:53:48;63.80;;;35.95;;
34695;SDS011;20918;51.138;17.370;2022-12-05T15:57:18;72.70;;;36.90;;
34695;SDS011;20918;51.138;17.370;2022-12-05T16:00:23;67.17;;;36.10;;
34695;SDS011;20918;51.138;17.370;2022-12-05T16:03:37;68.45;;;36.13;;
34695;SDS011;20918;51.138;17.370;2022-12-05T16:06:56;64.35;;;34.18;;
34695;SDS011;20918;51.138;17.370;2022-12-05T16:10:02;64.40;;;34.88;;
34695;SDS011;20918;51.138;17.370;2022-12-05T16:13:07;63.83;;;34.43;;
34695;SDS011;20918;51.138;17.370;2022-12-05T16:16:18;67.12;;;35.28;;
34695;SDS011;20918;51.138;17.370;2022-12-05T16:19:23;63.73;;;34.95;;
34695;SDS011;20918;51.138;17.370;2022-12-05T16:22:24;62.10;;;32.93;;
34695;SDS011;20918;51.138;17.370;2022-12-05T16:25:29;62.15;;;34.30;;
34695;SDS011;20918;51.138;17.370;2022-12-05T16:28:34;63.78;;;33.88;;
34695;SDS011;20918;51.138;17.370;2022-12-05T16:31:35;63.35;;;34.27;;
34695;SDS011;20918;51.138;17.370;2022-12-05T16:34:38;70.87;;;36.80;;
34695;SDS011;20918;51.138;17.370;2022-12-05T16:37:40;68.72;;;35.38;;
34695;SDS011;20918;51.138;17.370;2022-12-05T16:44:03;64.82;;;35.15;;
34695;SDS011;20918;51.138;17.370;2022-12-05T16:47:05;69.35;;;37.23;;
34695;SDS011;20918;51.138;17.370;2022-12-05T16:53:30;75.28;;;37.95;;
34695;SDS011;20918;51.138;17.370;2022-12-05T16:56:34;64.15;;;35.35;;
34695;SDS011;20918;51.138;17.370;2022-12-05T16:59:39;72.08;;;38.28;;
34695;SDS011;20918;51.138;17.370;2022-12-05T17:02:45;67.08;;;36.48;;
34695;SDS011;20918;51.138;17.370;2022-12-05T17:05:46;59.18;;;34.03;;
34695;SDS011;20918;51.138;17.370;2022-12-05T17:08:47;64.45;;;34.88;;
34695;SDS011;20918;51.138;17.370;2022-12-05T17:11:50;60.20;;;34.30;;
34695;SDS011;20918;51.138;17.370;2022-12-05T17:14:54;65.22;;;34.80;;
34695;SDS011;20918;51.138;17.370;2022-12-05T17:17:55;61.02;;;34.30;;
34695;SDS011;20918;51.138;17.370;2022-12-05T17:20:56;65.32;;;35.73;;
34695;SDS011;20918;51.138;17.370;2022-12-05T17:24:01;63.33;;;34.53;;
34695;SDS011;20918;51.138;17.370;2022-12-05T17:27:04;59.67;;;35.05;;
34695;SDS011;20918;51.138;17.370;2022-12-05T17:30:09;65.42;;;36.53;;
34695;SDS011;20918;51.138;17.370;2022-12-05T17:33:11;65.52;;;35.40;;
34695;SDS011;20918;51.138;17.370;2022-12-05T17:36:15;70.15;;;38.50;;
34695;SDS011;20918;51.138;17.370;2022-12-05T17:39:19;68.47;;;39.58;;
34695;SDS011;20918;51.138;17.370;2022-12-05T17:42:20;68.97;;;37.05;;
34695;SDS011;20918;51.138;17.370;2022-12-05T17:45:21;71.22;;;39.13;;
34695;SDS011;20918;51.138;17.370;2022-12-05T17:48:23;71.80;;;38.63;;
34695;SDS011;20918;51.138;17.370;2022-12-05T17:51:25;69.58;;;38.70;;
34695;SDS011;20918;51.138;17.370;2022-12-05T17:54:28;75.28;;;39.98;;
34695;SDS011;20918;51.138;17.370;2022-12-05T17:57:30;71.37;;;40.12;;
34695;SDS011;20918;51.138;17.370;2022-12-05T18:00:31;81.37;;;40.38;;
34695;SDS011;20918;51.138;17.370;2022-12-05T18:03:33;77.50;;;40.90;;
34695;SDS011;20918;51.138;17.370;2022-12-05T18:06:34;77.85;;;40.75;;
34695;SDS011;20918;51.138;17.370;2022-12-05T18:09:35;80.90;;;42.67;;
34695;SDS011;20918;51.138;17.370;2022-12-05T18:12:36;81.17;;;44.75;;
34695;SDS011;20918;51.138;17.370;2022-12-05T18:15:38;79.90;;;42.05;;
34695;SDS011;20918;51.138;17.370;2022-12-05T18:18:40;87.57;;;47.15;;
34695;SDS011;20918;51.138;17.370;2022-12-05T18:21:42;96.78;;;50.70;;
34695;SDS011;20918;51.138;17.370;2022-12-05T18:24:43;97.25;;;48.55;;
34695;SDS011;20918;51.138;17.370;2022-12-05T18:27:44;113.15;;;60.73;;
34695;SDS011;20918;51.138;17.370;2022-12-05T18:30:45;110.10;;;59.08;;
34695;SDS011;20918;51.138;17.370;2022-12-05T18:33:46;117.70;;;60.28;;
34695;SDS011;20918;51.138;17.370;2022-12-05T18:36:48;104.87;;;55.73;;
34695;SDS011;20918;51.138;17.370;2022-12-05T18:39:55;138.00;;;71.65;;
34695;SDS011;20918;51.138;17.370;2022-12-05T18:42:56;141.57;;;76.37;;
34695;SDS011;20918;51.138;17.370;2022-12-05T18:45:58;107.20;;;56.85;;
34695;SDS011;20918;51.138;17.370;2022-12-05T18:49:02;112.32;;;57.20;;
34695;SDS011;20918;51.138;17.370;2022-12-05T18:52:04;94.03;;;48.95;;
34695;SDS011;20918;51.138;17.370;2022-12-05T18:55:09;79.37;;;44.15;;
34695;SDS011;20918;51.138;17.370;2022-12-05T18:58:12;81.80;;;42.58;;
34695;SDS011;20918;51.138;17.370;2022-12-05T19:01:13;83.67;;;45.88;;
34695;SDS011;20918;51.138;17.370;2022-12-05T19:04:17;84.90;;;46.15;;
34695;SDS011;20918;51.138;17.370;2022-12-05T19:07:20;87.55;;;45.67;;
34695;SDS011;20918;51.138;17.370;2022-12-05T19:10:22;77.27;;;42.62;;
34695;SDS011;20918;51.138;17.370;2022-12-05T19:13:23;80.47;;;42.48;;
34695;SDS011;20918;51.138;17.370;2022-12-05T19:16:24;84.97;;;45.88;;
34695;SDS011;20918;51.138;17.370;2022-12-05T19:19:28;78.67;;;41.48;;
34695;SDS011;20918;51.138;17.370;2022-12-05T19:22:29;82.57;;;42.43;;
34695;SDS011;20918;51.138;17.370;2022-12-05T19:25:30;79.32;;;40.70;;
34695;SDS011;20918;51.138;17.370;2022-12-05T19:28:32;73.85;;;41.73;;
34695;SDS011;20918;51.138;17.370;2022-12-05T19:31:36;72.82;;;39.48;;
34695;SDS011;20918;51.138;17.370;2022-12-05T19:34:38;83.52;;;43.15;;
34695;SDS011;20918;51.138;17.370;2022-12-05T19:37:39;74.37;;;40.15;;
34695;SDS011;20918;51.138;17.370;2022-12-05T19:40:40;104.32;;;54.00;;
34695;SDS011;20918;51.138;17.370;2022-12-05T19:43:41;82.20;;;43.80;;
34695;SDS011;20918;51.138;17.370;2022-12-05T19:46:44;80.00;;;42.48;;
34695;SDS011;20918;51.138;17.370;2022-12-05T19:49:46;83.27;;;45.03;;
34695;SDS011;20918;51.138;17.370;2022-12-05T19:52:48;80.90;;;43.92;;
34695;SDS011;20918;51.138;17.370;2022-12-05T19:55:50;78.22;;;42.67;;
34695;SDS011;20918;51.138;17.370;2022-12-05T19:58:52;77.78;;;39.58;;
34695;SDS011;20918;51.138;17.370;2022-12-05T20:01:55;73.42;;;40.85;;
34695;SDS011;20918;51.138;17.370;2022-12-05T20:04:56;73.67;;;42.30;;
34695;SDS011;20918;51.138;17.370;2022-12-05T20:07:57;77.47;;;40.23;;
34695;SDS011;20918;51.138;17.370;2022-12-05T20:11:08;74.35;;;40.95;;
34695;SDS011;20918;51.138;17.370;2022-12-05T20:14:14;72.17;;;38.38;;
34695;SDS011;20918;51.138;17.370;2022-12-05T20:17:16;67.87;;;38.53;;
34695;SDS011;20918;51.138;17.370;2022-12-05T20:20:17;67.50;;;37.20;;
34695;SDS011;20918;51.138;17.370;2022-12-05T20:23:18;71.10;;;36.83;;
34695;SDS011;20918;51.138;17.370;2022-12-05T20:26:25;60.80;;;35.40;;
34695;SDS011;20918;51.138;17.370;2022-12-05T20:29:29;67.25;;;37.25;;
34695;SDS011;20918;51.138;17.370;2022-12-05T20:32:31;65.28;;;36.28;;
34695;SDS011;20918;51.138;17.370;2022-12-05T20:35:34;68.28;;;36.90;;
34695;SDS011;20918;51.138;17.370;2022-12-05T20:38:36;70.40;;;37.35;;